Main page
METAR-TAF:

METAR-TAF

Airports :

Seinäjoki Airport

Seinäjoki-Ilmajoki, Finland

latitude: 62-41-37N, longitude: 022-49-55E, elevation: 91 m

Current weather observation

The report was made 36 minutes ago, at 16:20 UTC
Wind 5 kt from the Southwest, varying between South/Southwest and West
Temperature 23°C
Humidity 65%
Pressure 1013 hPa
Visibility 10 km or more
no clouds below 1500 m and no cumulonimbus

METAR: EFSI 231620Z AUTO 22005KT 200V260 CAVOK 23/16 Q1013

Time: 19:56 (16:56 UTC)

Forecast

The report was made 47 minutes ago, at 16:09 UTC
Forecast valid from 23 at 16 UTC to 23 at 24 UTC
Wind 7 kt from the South/Southwest
Visibility 10 km or more
no clouds below 1500 m and no cumulonimbus
Temporary
from 23 at 16 UTC to 23 at 24 UTC
Few clouds at a height of 5000 ft, Cumulonimbus.
Probability 30% :
Temporary
from 23 at 16 UTC to 23 at 19 UTC
thunderstorm,

TAF: EFSI 231609Z 2316/2324 20007KT CAVOK TEMPO 2316/2324 FEW050CB PROB30 TEMPO 2316/2319 TS

Weather observations and forecasts of more than 4000 airports (METAR and TAF reports).

The available stations are represented by yellow and red dots on the map.

Hover mouse over dot to see the name of the station.

Then click to see weather observations and forecasts.

To change the map : click on the green buttons with a black cross to zoom in, on the green button with a dash to zoom out, or on the green arrows for adjacent maps.


METAR-TAF: